sensor_id;sensor_type;location;lat;lon;timestamp;pressure;altitude;pressure_sealevel;temperature;humidity
9521;BME280;4798;41.574;23.734;2022-10-14T00:01:21;95585.22;;;16.33;78.25
9521;BME280;4798;41.574;23.734;2022-10-14T00:03:50;95584.81;;;16.26;78.42
9521;BME280;4798;41.574;23.734;2022-10-14T00:06:20;95577.38;;;16.23;79.11
9521;BME280;4798;41.574;23.734;2022-10-14T00:08:50;95510.56;;;15.96;78.01
9521;BME280;4798;41.574;23.734;2022-10-14T00:11:20;95560.53;;;16.36;77.46
9521;BME280;4798;41.574;23.734;2022-10-14T00:13:49;95568.75;;;15.99;76.25
9521;BME280;4798;41.574;23.734;2022-10-14T00:16:20;95576.38;;;15.92;78.31
9521;BME280;4798;41.574;23.734;2022-10-14T00:18:48;95577.88;;;15.84;78.31
9521;BME280;4798;41.574;23.734;2022-10-14T00:21:17;95576.47;;;15.41;78.68
9521;BME280;4798;41.574;23.734;2022-10-14T00:23:46;95575.28;;;15.79;78.41
9521;BME280;4798;41.574;23.734;2022-10-14T00:26:18;95564.31;;;15.95;77.86
9521;BME280;4798;41.574;23.734;2022-10-14T00:28:47;95568.78;;;16.13;78.14
9521;BME280;4798;41.574;23.734;2022-10-14T00:31:16;95568.19;;;16.16;77.24
9521;BME280;4798;41.574;23.734;2022-10-14T00:33:44;95564.00;;;16.10;77.56
9521;BME280;4798;41.574;23.734;2022-10-14T00:36:14;95564.59;;;16.20;77.57
9521;BME280;4798;41.574;23.734;2022-10-14T00:38:43;95563.00;;;16.19;76.54
9521;BME280;4798;41.574;23.734;2022-10-14T00:41:14;95564.06;;;15.32;79.51
9521;BME280;4798;41.574;23.734;2022-10-14T00:43:54;95572.66;;;14.96;83.73
9521;BME280;4798;41.574;23.734;2022-10-14T00:46:23;95542.88;;;14.89;85.06
9521;BME280;4798;41.574;23.734;2022-10-14T00:48:51;95566.66;;;15.37;83.00
9521;BME280;4798;41.574;23.734;2022-10-14T00:51:20;95579.31;;;15.31;82.59
9521;BME280;4798;41.574;23.734;2022-10-14T00:53:49;95564.97;;;15.08;85.29
9521;BME280;4798;41.574;23.734;2022-10-14T00:56:22;95571.66;;;14.74;91.65
9521;BME280;4798;41.574;23.734;2022-10-14T00:58:53;95568.25;;;14.49;98.54
9521;BME280;4798;41.574;23.734;2022-10-14T01:01:22;95567.75;;;14.66;98.71
9521;BME280;4798;41.574;23.734;2022-10-14T01:03:51;95566.06;;;15.07;94.38
9521;BME280;4798;41.574;23.734;2022-10-14T01:06:25;95561.75;;;14.55;97.16
9521;BME280;4798;41.574;23.734;2022-10-14T01:09:02;95555.19;;;14.85;97.76
9521;BME280;4798;41.574;23.734;2022-10-14T01:11:37;95554.47;;;15.31;92.35
9521;BME280;4798;41.574;23.734;2022-10-14T01:14:14;95542.88;;;15.21;90.58
9521;BME280;4798;41.574;23.734;2022-10-14T01:16:54;95547.25;;;15.31;89.81
9521;BME280;4798;41.574;23.734;2022-10-14T01:19:38;95544.97;;;15.24;90.26
9521;BME280;4798;41.574;23.734;2022-10-14T01:22:16;95544.38;;;15.27;89.82
9521;BME280;4798;41.574;23.734;2022-10-14T01:24:55;95541.75;;;15.41;87.61
9521;BME280;4798;41.574;23.734;2022-10-14T01:27:45;95525.94;;;15.45;87.16
9521;BME280;4798;41.574;23.734;2022-10-14T01:30:19;95531.72;;;15.65;86.71
9521;BME280;4798;41.574;23.734;2022-10-14T01:32:55;95528.75;;;15.67;86.39
9521;BME280;4798;41.574;23.734;2022-10-14T01:35:37;95520.53;;;15.77;86.02
9521;BME280;4798;41.574;23.734;2022-10-14T01:38:12;95523.72;;;15.79;85.38
9521;BME280;4798;41.574;23.734;2022-10-14T01:40:46;95525.19;;;15.85;84.13
9521;BME280;4798;41.574;23.734;2022-10-14T01:43:18;95527.47;;;15.78;84.30
9521;BME280;4798;41.574;23.734;2022-10-14T01:45:49;95511.63;;;15.81;84.75
9521;BME280;4798;41.574;23.734;2022-10-14T01:48:23;95509.75;;;15.96;84.74
9521;BME280;4798;41.574;23.734;2022-10-14T01:50:56;95508.75;;;15.92;85.19
9521;BME280;4798;41.574;23.734;2022-10-14T01:53:29;95502.53;;;15.96;85.31
9521;BME280;4798;41.574;23.734;2022-10-14T01:56:01;95508.66;;;15.97;85.39
9521;BME280;4798;41.574;23.734;2022-10-14T01:58:32;95495.03;;;15.25;85.59
9521;BME280;4798;41.574;23.734;2022-10-14T02:01:03;95500.00;;;14.67;89.24
9521;BME280;4798;41.574;23.734;2022-10-14T02:03:40;95510.22;;;14.60;93.65
9521;BME280;4798;41.574;23.734;2022-10-14T02:06:11;95496.22;;;15.00;95.47
9521;BME280;4798;41.574;23.734;2022-10-14T02:09:00;95495.75;;;14.98;94.60
9521;BME280;4798;41.574;23.734;2022-10-14T02:11:37;95487.72;;;14.66;93.88
9521;BME280;4798;41.574;23.734;2022-10-14T02:14:16;95479.53;;;14.95;93.60
9521;BME280;4798;41.574;23.734;2022-10-14T02:16:56;95478.78;;;15.21;92.25
9521;BME280;4798;41.574;23.734;2022-10-14T02:19:30;95483.91;;;15.64;89.00
9521;BME280;4798;41.574;23.734;2022-10-14T02:22:04;95487.41;;;15.78;86.52
9521;BME280;4798;41.574;23.734;2022-10-14T02:24:38;95484.09;;;15.95;83.33
9521;BME280;4798;41.574;23.734;2022-10-14T02:27:09;95491.59;;;14.92;86.83
9521;BME280;4798;41.574;23.734;2022-10-14T02:29:39;95491.19;;;14.48;94.89
9521;BME280;4798;41.574;23.734;2022-10-14T02:32:13;95486.16;;;14.46;97.03
9521;BME280;4798;41.574;23.734;2022-10-14T02:34:43;95486.19;;;14.23;99.71
9521;BME280;4798;41.574;23.734;2022-10-14T02:37:14;95476.88;;;14.20;100.00
9521;BME280;4798;41.574;23.734;2022-10-14T02:39:51;95475.34;;;14.56;99.13
9521;BME280;4798;41.574;23.734;2022-10-14T02:42:21;95477.34;;;14.97;94.77
9521;BME280;4798;41.574;23.734;2022-10-14T02:44:53;95478.50;;;15.23;92.42
9521;BME280;4798;41.574;23.734;2022-10-14T02:47:24;95479.09;;;14.88;94.39
9521;BME280;4798;41.574;23.734;2022-10-14T02:49:53;95480.53;;;14.80;96.10
9521;BME280;4798;41.574;23.734;2022-10-14T02:52:21;95482.38;;;14.98;94.81
9521;BME280;4798;41.574;23.734;2022-10-14T02:54:50;95483.06;;;15.36;91.04
9521;BME280;4798;41.574;23.734;2022-10-14T02:57:18;95471.72;;;15.44;90.88
9521;BME280;4798;41.574;23.734;2022-10-14T02:59:46;95473.50;;;15.49;89.96
9521;BME280;4798;41.574;23.734;2022-10-14T03:02:14;95477.38;;;15.10;94.25
9521;BME280;4798;41.574;23.734;2022-10-14T03:04:44;95433.53;;;14.84;93.56
9521;BME280;4798;41.574;23.734;2022-10-14T03:07:12;95472.59;;;15.40;91.97
9521;BME280;4798;41.574;23.734;2022-10-14T03:09:41;95470.13;;;15.30;91.85
9521;BME280;4798;41.574;23.734;2022-10-14T03:12:09;95475.25;;;14.94;97.66
9521;BME280;4798;41.574;23.734;2022-10-14T03:14:37;95467.41;;;15.02;96.02
9521;BME280;4798;41.574;23.734;2022-10-14T03:17:05;95466.47;;;14.93;96.53
9521;BME280;4798;41.574;23.734;2022-10-14T03:19:34;95467.72;;;15.14;94.57
9521;BME280;4798;41.574;23.734;2022-10-14T03:22:04;95460.31;;;15.39;93.68
9521;BME280;4798;41.574;23.734;2022-10-14T03:24:32;95464.69;;;15.35;92.35
9521;BME280;4798;41.574;23.734;2022-10-14T03:27:00;95456.31;;;15.55;91.80
9521;BME280;4798;41.574;23.734;2022-10-14T03:29:28;95451.38;;;15.48;91.43
9521;BME280;4798;41.574;23.734;2022-10-14T03:31:57;95456.56;;;15.40;92.83
9521;BME280;4798;41.574;23.734;2022-10-14T03:34:25;95459.03;;;15.36;93.13
9521;BME280;4798;41.574;23.734;2022-10-14T03:36:53;95454.28;;;15.33;94.18
9521;BME280;4798;41.574;23.734;2022-10-14T03:39:23;95434.56;;;15.15;96.07
9521;BME280;4798;41.574;23.734;2022-10-14T03:41:51;95458.94;;;14.95;97.19
9521;BME280;4798;41.574;23.734;2022-10-14T03:44:20;95460.78;;;15.13;97.37
9521;BME280;4798;41.574;23.734;2022-10-14T03:46:48;95461.19;;;14.75;97.63
9521;BME280;4798;41.574;23.734;2022-10-14T03:49:16;95453.03;;;14.66;100.00
9521;BME280;4798;41.574;23.734;2022-10-14T03:51:45;95456.97;;;14.87;100.00
9521;BME280;4798;41.574;23.734;2022-10-14T03:54:13;95457.28;;;14.99;100.00
9521;BME280;4798;41.574;23.734;2022-10-14T03:56:43;95455.22;;;14.64;100.00
9521;BME280;4798;41.574;23.734;2022-10-14T03:59:11;95458.78;;;15.05;99.57
9521;BME280;4798;41.574;23.734;2022-10-14T04:01:39;95463.63;;;14.15;100.00
9521;BME280;4798;41.574;23.734;2022-10-14T04:04:07;95460.94;;;14.39;100.00
9521;BME280;4798;41.574;23.734;2022-10-14T04:06:36;95453.34;;;14.46;100.00
9521;BME280;4798;41.574;23.734;2022-10-14T04:09:04;95454.00;;;14.38;100.00
9521;BME280;4798;41.574;23.734;2022-10-14T04:11:33;95453.28;;;14.51;100.00
9521;BME280;4798;41.574;23.734;2022-10-14T04:14:02;95450.22;;;14.57;100.00
9521;BME280;4798;41.574;23.734;2022-10-14T04:16:31;95450.53;;;14.56;100.00
9521;BME280;4798;41.574;23.734;2022-10-14T04:18:59;95447.84;;;14.75;100.00
9521;BME280;4798;41.574;23.734;2022-10-14T04:21:27;95445.78;;;14.85;100.00
9521;BME280;4798;41.574;23.734;2022-10-14T04:23:55;95445.19;;;14.88;100.00
9521;BME280;4798;41.574;23.734;2022-10-14T04:26:24;95418.63;;;14.32;100.00
9521;BME280;4798;41.574;23.734;2022-10-14T04:28:52;95441.28;;;14.30;100.00
9521;BME280;4798;41.574;23.734;2022-10-14T04:31:23;95446.06;;;14.33;100.00
9521;BME280;4798;41.574;23.734;2022-10-14T04:33:51;95441.06;;;14.63;100.00
9521;BME280;4798;41.574;23.734;2022-10-14T04:36:19;95435.19;;;14.80;100.00
9521;BME280;4798;41.574;23.734;2022-10-14T04:38:48;95432.06;;;14.92;100.00
9521;BME280;4798;41.574;23.734;2022-10-14T04:41:16;95436.19;;;14.84;100.00
9521;BME280;4798;41.574;23.734;2022-10-14T04:43:44;95437.91;;;14.94;100.00
9521;BME280;4798;41.574;23.734;2022-10-14T04:46:13;95445.72;;;14.39;100.00
9521;BME280;4798;41.574;23.734;2022-10-14T04:48:42;95431.63;;;14.15;100.00
9521;BME280;4798;41.574;23.734;2022-10-14T04:51:11;95449.31;;;14.48;100.00
9521;BME280;4798;41.574;23.734;2022-10-14T04:53:39;95449.78;;;15.01;100.00
9521;BME280;4798;41.574;23.734;2022-10-14T04:56:07;95442.50;;;15.20;100.00
9521;BME280;4798;41.574;23.734;2022-10-14T04:58:35;95444.19;;;15.16;100.00
9521;BME280;4798;41.574;23.734;2022-10-14T05:01:04;95439.53;;;15.36;100.00
9521;BME280;4798;41.574;23.734;2022-10-14T05:03:32;95440.44;;;15.45;99.99
9521;BME280;4798;41.574;23.734;2022-10-14T05:06:02;95435.94;;;15.45;100.00
9521;BME280;4798;41.574;23.734;2022-10-14T05:08:30;95437.47;;;15.33;100.00
9521;BME280;4798;41.574;23.734;2022-10-14T05:10:59;95440.13;;;15.19;100.00
9521;BME280;4798;41.574;23.734;2022-10-14T05:13:28;95438.38;;;15.42;100.00
9521;BME280;4798;41.574;23.734;2022-10-14T05:15:57;95441.84;;;15.42;100.00
9521;BME280;4798;41.574;23.734;2022-10-14T05:18:25;95433.22;;;15.32;100.00
9521;BME280;4798;41.574;23.734;2022-10-14T05:20:55;95408.41;;;15.17;100.00
9521;BME280;4798;41.574;23.734;2022-10-14T05:23:26;95444.47;;;14.83;100.00
9521;BME280;4798;41.574;23.734;2022-10-14T05:25:54;95416.50;;;14.80;100.00
9521;BME280;4798;41.574;23.734;2022-10-14T05:28:22;95448.19;;;15.00;100.00
9521;BME280;4798;41.574;23.734;2022-10-14T05:30:51;95474.06;;;14.86;100.00
9521;BME280;4798;41.574;23.734;2022-10-14T05:33:19;95439.13;;;14.69;100.00
9521;BME280;4798;41.574;23.734;2022-10-14T05:35:48;95433.53;;;14.33;100.00
9521;BME280;4798;41.574;23.734;2022-10-14T05:38:27;95442.59;;;14.70;100.00
9521;BME280;4798;41.574;23.734;2022-10-14T05:40:58;95440.84;;;15.24;100.00
9521;BME280;4798;41.574;23.734;2022-10-14T05:43:26;95380.06;;;14.89;100.00
9521;BME280;4798;41.574;23.734;2022-10-14T05:45:58;95405.81;;;15.26;100.00
9521;BME280;4798;41.574;23.734;2022-10-14T05:48:27;95446.59;;;15.59;100.00
9521;BME280;4798;41.574;23.734;2022-10-14T05:50:55;95442.47;;;15.53;100.00
9521;BME280;4798;41.574;23.734;2022-10-14T05:53:28;95450.31;;;15.17;100.00
9521;BME280;4798;41.574;23.734;2022-10-14T05:56:14;95455.13;;;15.01;100.00
9521;BME280;4798;41.574;23.734;2022-10-14T05:58:42;95435.72;;;14.82;100.00
9521;BME280;4798;41.574;23.734;2022-10-14T06:01:11;95446.34;;;14.69;100.00
9521;BME280;4798;41.574;23.734;2022-10-14T06:03:39;95420.41;;;14.18;100.00
9521;BME280;4798;41.574;23.734;2022-10-14T06:06:11;95444.53;;;14.64;100.00
9521;BME280;4798;41.574;23.734;2022-10-14T06:08:41;95451.81;;;14.77;100.00
9521;BME280;4798;41.574;23.734;2022-10-14T06:11:11;95378.59;;;14.51;100.00
9521;BME280;4798;41.574;23.734;2022-10-14T06:13:39;95467.44;;;15.30;100.00
9521;BME280;4798;41.574;23.734;2022-10-14T06:16:08;95468.59;;;15.56;100.00
9521;BME280;4798;41.574;23.734;2022-10-14T06:18:37;95474.22;;;15.68;100.00
9521;BME280;4798;41.574;23.734;2022-10-14T06:21:06;95469.56;;;15.60;100.00
9521;BME280;4798;41.574;23.734;2022-10-14T06:23:34;95470.16;;;15.57;100.00
9521;BME280;4798;41.574;23.734;2022-10-14T06:26:05;95465.81;;;15.47;100.00
9521;BME280;4798;41.574;23.734;2022-10-14T06:28:35;95465.53;;;15.76;100.00
9521;BME280;4798;41.574;23.734;2022-10-14T06:31:05;95473.31;;;15.59;100.00
9521;BME280;4798;41.574;23.734;2022-10-14T06:33:33;95476.13;;;15.21;100.00
9521;BME280;4798;41.574;23.734;2022-10-14T06:36:02;95463.09;;;15.34;100.00
9521;BME280;4798;41.574;23.734;2022-10-14T06:38:31;95447.34;;;15.18;100.00
9521;BME280;4798;41.574;23.734;2022-10-14T06:40:59;95470.16;;;15.11;100.00
9521;BME280;4798;41.574;23.734;2022-10-14T06:43:29;95476.69;;;15.05;100.00
9521;BME280;4798;41.574;23.734;2022-10-14T06:45:57;95469.38;;;15.10;100.00
9521;BME280;4798;41.574;23.734;2022-10-14T06:48:26;95483.16;;;15.17;100.00
9521;BME280;4798;41.574;23.734;2022-10-14T06:50:56;95482.44;;;15.25;100.00
9521;BME280;4798;41.574;23.734;2022-10-14T06:53:25;95481.97;;;15.23;100.00
9521;BME280;4798;41.574;23.734;2022-10-14T06:55:57;95478.78;;;15.67;100.00
9521;BME280;4798;41.574;23.734;2022-10-14T06:58:27;95464.00;;;15.43;100.00
9521;BME280;4798;41.574;23.734;2022-10-14T07:01:00;95480.25;;;15.60;100.00
9521;BME280;4798;41.574;23.734;2022-10-14T07:03:28;95493.38;;;15.43;100.00
9521;BME280;4798;41.574;23.734;2022-10-14T07:06:01;95490.28;;;15.36;100.00
9521;BME280;4798;41.574;23.734;2022-10-14T07:08:30;95500.88;;;15.41;100.00
9521;BME280;4798;41.574;23.734;2022-10-14T07:10:58;95491.78;;;15.42;100.00
9521;BME280;4798;41.574;23.734;2022-10-14T07:13:27;95494.59;;;15.04;100.00
9521;BME280;4798;41.574;23.734;2022-10-14T07:15:57;95478.66;;;15.13;100.00
9521;BME280;4798;41.574;23.734;2022-10-14T07:18:25;95498.78;;;15.24;100.00
9521;BME280;4798;41.574;23.734;2022-10-14T07:20:53;95462.41;;;15.42;100.00
9521;BME280;4798;41.574;23.734;2022-10-14T07:23:22;95493.38;;;15.43;100.00
9521;BME280;4798;41.574;23.734;2022-10-14T07:25:50;95504.03;;;15.75;100.00
9521;BME280;4798;41.574;23.734;2022-10-14T07:28:18;95503.31;;;15.23;100.00
9521;BME280;4798;41.574;23.734;2022-10-14T07:30:57;95499.63;;;15.52;100.00
9521;BME280;4798;41.574;23.734;2022-10-14T07:33:25;95496.00;;;15.75;100.00
9521;BME280;4798;41.574;23.734;2022-10-14T07:35:54;95480.47;;;15.91;100.00
9521;BME280;4798;41.574;23.734;2022-10-14T07:38:22;95501.81;;;16.04;100.00
9521;BME280;4798;41.574;23.734;2022-10-14T07:40:58;95504.91;;;15.84;100.00
9521;BME280;4798;41.574;23.734;2022-10-14T07:43:26;95497.88;;;15.61;100.00
9521;BME280;4798;41.574;23.734;2022-10-14T07:45:58;95504.44;;;15.68;100.00
9521;BME280;4798;41.574;23.734;2022-10-14T07:48:29;95504.00;;;16.02;100.00
9521;BME280;4798;41.574;23.734;2022-10-14T07:51:18;95478.06;;;15.89;100.00
9521;BME280;4798;41.574;23.734;2022-10-14T07:53:46;95507.78;;;15.87;100.00
9521;BME280;4798;41.574;23.734;2022-10-14T07:56:16;95501.91;;;15.99;100.00
9521;BME280;4798;41.574;23.734;2022-10-14T07:58:44;95479.81;;;16.21;100.00
9521;BME280;4798;41.574;23.734;2022-10-14T08:01:15;95499.84;;;16.23;100.00
9521;BME280;4798;41.574;23.734;2022-10-14T08:03:46;95505.34;;;16.40;100.00
9521;BME280;4798;41.574;23.734;2022-10-14T08:06:15;95497.31;;;16.40;100.00
9521;BME280;4798;41.574;23.734;2022-10-14T08:08:44;95490.56;;;16.43;100.00
9521;BME280;4798;41.574;23.734;2022-10-14T08:11:14;95501.44;;;15.97;100.00
9521;BME280;4798;41.574;23.734;2022-10-14T08:13:43;95507.38;;;16.08;100.00
9521;BME280;4798;41.574;23.734;2022-10-14T08:16:16;95502.03;;;16.21;100.00
9521;BME280;4798;41.574;23.734;2022-10-14T08:18:45;95487.63;;;16.31;100.00
9521;BME280;4798;41.574;23.734;2022-10-14T08:21:15;95501.06;;;16.53;100.00
9521;BME280;4798;41.574;23.734;2022-10-14T08:23:44;95505.78;;;16.20;100.00
9521;BME280;4798;41.574;23.734;2022-10-14T08:26:19;95512.44;;;15.96;100.00
9521;BME280;4798;41.574;23.734;2022-10-14T08:28:49;95513.69;;;16.12;100.00
9521;BME280;4798;41.574;23.734;2022-10-14T08:31:20;95465.88;;;16.10;100.00
9521;BME280;4798;41.574;23.734;2022-10-14T08:33:48;95523.44;;;16.57;100.00
9521;BME280;4798;41.574;23.734;2022-10-14T08:36:17;95518.25;;;15.84;100.00
9521;BME280;4798;41.574;23.734;2022-10-14T08:38:47;95522.69;;;16.29;100.00
9521;BME280;4798;41.574;23.734;2022-10-14T08:41:25;95526.19;;;16.03;100.00
9521;BME280;4798;41.574;23.734;2022-10-14T08:44:10;95526.84;;;16.35;100.00
9521;BME280;4798;41.574;23.734;2022-10-14T08:46:43;95445.13;;;15.53;100.00
9521;BME280;4798;41.574;23.734;2022-10-14T08:49:23;95537.34;;;16.45;100.00
9521;BME280;4798;41.574;23.734;2022-10-14T08:51:56;95537.97;;;16.02;100.00
9521;BME280;4798;41.574;23.734;2022-10-14T08:54:35;95484.25;;;15.76;100.00
9521;BME280;4798;41.574;23.734;2022-10-14T08:57:05;95521.41;;;16.27;100.00
9521;BME280;4798;41.574;23.734;2022-10-14T08:59:40;95542.53;;;16.28;100.00
9521;BME280;4798;41.574;23.734;2022-10-14T09:02:20;95548.13;;;15.59;100.00
9521;BME280;4798;41.574;23.734;2022-10-14T09:04:51;95551.47;;;15.18;100.00
9521;BME280;4798;41.574;23.734;2022-10-14T09:07:20;95543.34;;;15.10;100.00
9521;BME280;4798;41.574;23.734;2022-10-14T09:09:50;95549.91;;;15.31;100.00
9521;BME280;4798;41.574;23.734;2022-10-14T09:12:23;95550.47;;;16.06;100.00
9521;BME280;4798;41.574;23.734;2022-10-14T09:15:00;95537.28;;;15.96;100.00
9521;BME280;4798;41.574;23.734;2022-10-14T09:17:34;95556.09;;;15.77;100.00
9521;BME280;4798;41.574;23.734;2022-10-14T09:20:14;95557.50;;;15.43;100.00
9521;BME280;4798;41.574;23.734;2022-10-14T09:22:43;95552.97;;;15.57;100.00
9521;BME280;4798;41.574;23.734;2022-10-14T09:25:15;95558.59;;;16.01;100.00
9521;BME280;4798;41.574;23.734;2022-10-14T09:27:44;95532.88;;;16.55;100.00
9521;BME280;4798;41.574;23.734;2022-10-14T09:30:17;95550.78;;;16.68;100.00
9521;BME280;4798;41.574;23.734;2022-10-14T09:32:49;95546.03;;;17.00;89.75
9521;BME280;4798;41.574;23.734;2022-10-14T09:35:22;95540.28;;;17.15;88.80
9521;BME280;4798;41.574;23.734;2022-10-14T09:37:52;95546.19;;;16.82;95.68
9521;BME280;4798;41.574;23.734;2022-10-14T09:40:25;95539.16;;;16.36;95.02
9521;BME280;4798;41.574;23.734;2022-10-14T09:42:58;95559.06;;;16.17;91.99
9521;BME280;4798;41.574;23.734;2022-10-14T09:45:37;95557.47;;;16.29;95.03
9521;BME280;4798;41.574;23.734;2022-10-14T09:48:18;95561.53;;;16.40;100.00
9521;BME280;4798;41.574;23.734;2022-10-14T09:50:49;95567.03;;;16.85;92.02
9521;BME280;4798;41.574;23.734;2022-10-14T09:53:24;95564.09;;;16.45;98.07
9521;BME280;4798;41.574;23.734;2022-10-14T09:55:56;95549.31;;;16.48;89.28
9521;BME280;4798;41.574;23.734;2022-10-14T09:58:31;95557.53;;;17.01;89.57
9521;BME280;4798;41.574;23.734;2022-10-14T10:01:00;95559.84;;;16.94;94.50
9521;BME280;4798;41.574;23.734;2022-10-14T10:03:32;95554.00;;;17.14;91.60
9521;BME280;4798;41.574;23.734;2022-10-14T10:06:04;95516.81;;;16.55;93.75
9521;BME280;4798;41.574;23.734;2022-10-14T10:08:34;95559.16;;;16.52;97.84
9521;BME280;4798;41.574;23.734;2022-10-14T10:11:05;95560.53;;;16.99;91.67
9521;BME280;4798;41.574;23.734;2022-10-14T10:13:40;95558.19;;;17.29;91.81
9521;BME280;4798;41.574;23.734;2022-10-14T10:16:20;95565.50;;;16.92;78.59
9521;BME280;4798;41.574;23.734;2022-10-14T10:18:51;95565.38;;;16.48;79.25
9521;BME280;4798;41.574;23.734;2022-10-14T10:21:23;95560.41;;;16.69;82.42
9521;BME280;4798;41.574;23.734;2022-10-14T10:23:55;95554.59;;;16.89;82.82
9521;BME280;4798;41.574;23.734;2022-10-14T10:26:25;95562.78;;;16.70;78.66
9521;BME280;4798;41.574;23.734;2022-10-14T10:28:56;95557.25;;;16.67;80.55
9521;BME280;4798;41.574;23.734;2022-10-14T10:31:51;95554.06;;;16.51;78.85
9521;BME280;4798;41.574;23.734;2022-10-14T10:34:59;95548.78;;;16.73;80.77
9521;BME280;4798;41.574;23.734;2022-10-14T10:37:31;95544.75;;;16.98;80.52
9521;BME280;4798;41.574;23.734;2022-10-14T10:40:16;95484.00;;;16.13;82.34
9521;BME280;4798;41.574;23.734;2022-10-14T10:42:58;95534.53;;;16.50;91.76
9521;BME280;4798;41.574;23.734;2022-10-14T10:45:37;95549.38;;;16.84;94.70
9521;BME280;4798;41.574;23.734;2022-10-14T10:48:13;95539.91;;;17.00;92.50
9521;BME280;4798;41.574;23.734;2022-10-14T10:50:49;95540.91;;;16.90;85.65
9521;BME280;4798;41.574;23.734;2022-10-14T10:53:37;95545.66;;;16.93;86.48
9521;BME280;4798;41.574;23.734;2022-10-14T10:56:15;95536.06;;;17.14;81.25
9521;BME280;4798;41.574;23.734;2022-10-14T10:58:56;95534.03;;;16.98;84.36
9521;BME280;4798;41.574;23.734;2022-10-14T11:01:36;95530.81;;;16.87;83.73
9521;BME280;4798;41.574;23.734;2022-10-14T11:04:22;95526.84;;;17.29;74.36
9521;BME280;4798;41.574;23.734;2022-10-14T11:07:03;95532.81;;;16.82;73.86
9521;BME280;4798;41.574;23.734;2022-10-14T11:09:59;95533.53;;;16.74;81.05
9521;BME280;4798;41.574;23.734;2022-10-14T11:12:52;95511.41;;;16.32;81.38
9521;BME280;4798;41.574;23.734;2022-10-14T11:15:35;95523.38;;;16.35;81.62
9521;BME280;4798;41.574;23.734;2022-10-14T11:18:11;95526.56;;;15.69;89.17
9521;BME280;4798;41.574;23.734;2022-10-14T11:20:53;95496.28;;;15.60;85.42
9521;BME280;4798;41.574;23.734;2022-10-14T11:23:38;95512.31;;;15.87;92.22
9521;BME280;4798;41.574;23.734;2022-10-14T11:26:19;95515.91;;;15.82;95.96
9521;BME280;4798;41.574;23.734;2022-10-14T11:29:00;95513.59;;;15.49;97.53
9521;BME280;4798;41.574;23.734;2022-10-14T11:31:36;95432.00;;;15.10;100.00
9521;BME280;4798;41.574;23.734;2022-10-14T11:34:25;95506.28;;;15.81;98.27
9521;BME280;4798;41.574;23.734;2022-10-14T11:37:02;95480.19;;;15.78;97.80
9521;BME280;4798;41.574;23.734;2022-10-14T11:39:41;95489.47;;;15.21;100.00
9521;BME280;4798;41.574;23.734;2022-10-14T11:42:24;95403.69;;;14.82;100.00
9521;BME280;4798;41.574;23.734;2022-10-14T11:45:05;95493.34;;;15.29;99.96
9521;BME280;4798;41.574;23.734;2022-10-14T11:47:37;95491.91;;;15.04;100.00
9521;BME280;4798;41.574;23.734;2022-10-14T11:50:14;95444.31;;;14.93;100.00
9521;BME280;4798;41.574;23.734;2022-10-14T11:52:48;95488.56;;;15.12;99.46
9521;BME280;4798;41.574;23.734;2022-10-14T11:55:22;95489.25;;;15.18;94.91
9521;BME280;4798;41.574;23.734;2022-10-14T11:57:53;95481.25;;;14.86;90.90
9521;BME280;4798;41.574;23.734;2022-10-14T12:00:42;95484.25;;;14.84;90.71
9521;BME280;4798;41.574;23.734;2022-10-14T12:03:19;95250.28;;;13.37;90.06
9521;BME280;4798;41.574;23.734;2022-10-14T12:05:55;95429.28;;;14.32;88.03
9521;BME280;4798;41.574;23.734;2022-10-14T12:08:29;95453.06;;;14.47;89.31
9521;BME280;4798;41.574;23.734;2022-10-14T12:11:06;95481.94;;;14.22;87.09
9521;BME280;4798;41.574;23.734;2022-10-14T12:13:39;95454.75;;;14.20;85.17
9521;BME280;4798;41.574;23.734;2022-10-14T12:16:13;95466.94;;;14.26;85.58
9521;BME280;4798;41.574;23.734;2022-10-14T12:18:43;95485.94;;;14.61;88.72
9521;BME280;4798;41.574;23.734;2022-10-14T12:21:17;95491.75;;;14.82;87.14
9521;BME280;4798;41.574;23.734;2022-10-14T12:23:52;95482.28;;;14.90;88.03
9521;BME280;4798;41.574;23.734;2022-10-14T12:26:41;95492.28;;;14.98;90.08
9521;BME280;4798;41.574;23.734;2022-10-14T12:29:14;95485.03;;;15.17;92.17
9521;BME280;4798;41.574;23.734;2022-10-14T12:31:48;95415.78;;;14.61;92.50
9521;BME280;4798;41.574;23.734;2022-10-14T12:34:30;95486.09;;;14.84;96.51
9521;BME280;4798;41.574;23.734;2022-10-14T12:40:29;95481.59;;;14.66;93.49
9521;BME280;4798;41.574;23.734;2022-10-14T12:43:10;95487.56;;;14.76;93.68
9521;BME280;4798;41.574;23.734;2022-10-14T12:45:48;95492.69;;;14.73;98.87
9521;BME280;4798;41.574;23.734;2022-10-14T12:48:20;95493.09;;;14.24;100.00
9521;BME280;4798;41.574;23.734;2022-10-14T12:51:04;95440.13;;;13.80;100.00
9521;BME280;4798;41.574;23.734;2022-10-14T12:53:36;95485.88;;;14.80;100.00
9521;BME280;4798;41.574;23.734;2022-10-14T12:56:05;95464.31;;;14.44;100.00
9521;BME280;4798;41.574;23.734;2022-10-14T12:58:37;95488.03;;;14.97;100.00
9521;BME280;4798;41.574;23.734;2022-10-14T13:01:15;95489.66;;;15.11;100.00
9521;BME280;4798;41.574;23.734;2022-10-14T13:06:38;95493.34;;;14.46;100.00
9521;BME280;4798;41.574;23.734;2022-10-14T13:09:32;95482.91;;;14.49;100.00
9521;BME280;4798;41.574;23.734;2022-10-14T13:12:38;95487.16;;;14.32;100.00
9521;BME280;4798;41.574;23.734;2022-10-14T13:15:35;95484.59;;;13.79;100.00
9521;BME280;4798;41.574;23.734;2022-10-14T13:18:32;95477.00;;;13.91;100.00
9521;BME280;4798;41.574;23.734;2022-10-14T13:21:02;95476.47;;;13.71;100.00
9521;BME280;4798;41.574;23.734;2022-10-14T13:23:35;95483.53;;;13.33;100.00
9521;BME280;4798;41.574;23.734;2022-10-14T13:26:18;95484.66;;;14.17;100.00
9521;BME280;4798;41.574;23.734;2022-10-14T13:29:04;95225.56;;;12.70;100.00
9521;BME280;4798;41.574;23.734;2022-10-14T13:31:42;95435.94;;;14.30;100.00
9521;BME280;4798;41.574;23.734;2022-10-14T13:34:45;95447.88;;;14.19;100.00
9521;BME280;4798;41.574;23.734;2022-10-14T13:37:29;95474.75;;;14.41;100.00
9521;BME280;4798;41.574;23.734;2022-10-14T13:40:14;95469.69;;;14.21;100.00
9521;BME280;4798;41.574;23.734;2022-10-14T13:42:45;95463.13;;;14.69;100.00